Time;durP1;ratioP1;P1;durP2;ratioP2;P2;SDS_P1;SDS_P2;PMS_P1;PMS_P2;Temp;Humidity;BMP_temperature;BMP_pressure;BME280_temperature;BME280_humidity;BME280_pressure;Samples;Min_cycle;Max_cycle;Signal;HPM_P1;HPM_P2
2023/07/17 00:00:46;;;;;;;6.00;2.30;;;;;;;16.46;77.50;101614.47;6117219;19;20097;-71
2023/07/17 00:02:52;;;;;;;8.38;2.17;;;;;;;16.47;77.71;101616.19;6117127;19;20054;-71
2023/07/17 00:04:57;;;;;;;5.25;2.40;;;;;;;16.43;77.99;101618.16;6116445;19;20027;-71
2023/07/17 00:07:06;;;;;;;5.00;2.42;;;;;;;16.46;77.46;101617.97;6107963;19;20020;-70
2023/07/17 00:09:14;;;;;;;4.47;1.88;;;;;;;16.44;77.67;101611.03;6115888;19;20010;-71
2023/07/17 00:11:19;;;;;;;6.60;2.10;;;;;;;16.51;77.16;101614.22;6114614;19;20047;-72
2023/07/17 00:13:24;;;;;;;6.78;2.47;;;;;;;16.49;77.58;101622.25;6115544;19;20010;-71
2023/07/17 00:15:31;;;;;;;4.47;2.03;;;;;;;16.49;77.64;101619.63;6115812;19;20003;-72
2023/07/17 00:17:37;;;;;;;5.05;2.10;;;;;;;16.41;77.83;101619.16;6114186;19;20468;-72
2023/07/17 00:19:44;;;;;;;7.97;2.05;;;;;;;16.37;77.94;101613.13;6098828;19;20357;-72
2023/07/17 00:21:49;;;;;;;8.07;2.85;;;;;;;16.35;78.06;101620.34;6113513;19;20014;-70
2023/07/17 00:23:58;;;;;;;7.75;2.10;;;;;;;16.30;78.38;101621.50;6115184;19;20523;-71
2023/07/17 00:26:04;;;;;;;6.32;2.38;;;;;;;16.29;78.71;101618.00;6114407;19;20007;-72
2023/07/17 00:28:10;;;;;;;7.47;4.60;;;;;;;16.24;78.60;101618.25;6115724;19;20359;-71
2023/07/17 00:30:16;;;;;;;4.80;2.20;;;;;;;16.22;78.25;101617.47;6115720;19;20042;-72
2023/07/17 00:32:21;;;;;;;7.65;2.45;;;;;;;16.26;78.52;101622.63;6115584;19;20019;-72
2023/07/17 00:34:31;;;;;;;4.15;2.38;;;;;;;16.24;78.81;101625.31;6114458;19;20027;-70
2023/07/17 00:36:36;;;;;;;6.03;2.33;;;;;;;16.26;78.42;101623.47;6113172;19;20023;-73
2023/07/17 00:38:41;;;;;;;6.22;2.67;;;;;;;16.27;78.14;101624.31;6114459;19;20483;-73
2023/07/17 00:40:49;;;;;;;7.38;2.20;;;;;;;16.22;78.61;101614.81;6115130;19;20046;-71
2023/07/17 00:42:59;;;;;;;5.20;2.15;;;;;;;16.21;78.67;101620.19;6115743;19;20455;-70
2023/07/17 00:45:05;;;;;;;7.03;2.33;;;;;;;16.19;78.42;101616.75;6113917;19;20370;-69
2023/07/17 00:47:11;;;;;;;6.13;2.30;;;;;;;16.22;78.57;101617.47;6115504;19;20027;-72
2023/07/17 00:49:14;;;;;;;4.63;2.20;;;;;;;16.14;78.58;101616.13;6116605;19;20011;-71
2023/07/17 00:51:22;;;;;;;7.68;2.47;;;;;;;16.18;78.53;101629.16;6114151;19;21092;-72
2023/07/17 00:53:28;;;;;;;5.63;2.35;;;;;;;16.19;78.62;101622.94;6112312;19;20015;-73
2023/07/17 00:55:34;;;;;;;4.60;2.30;;;;;;;16.19;78.60;101622.94;6114040;19;20390;-70
2023/07/17 00:57:42;;;;;;;6.70;2.10;;;;;;;16.13;79.05;101611.78;6114473;19;20018;-73
2023/07/17 00:59:46;;;;;;;8.88;2.30;;;;;;;16.20;78.89;101622.00;6114294;19;20141;-72
2023/07/17 01:01:52;;;;;;;4.43;2.63;;;;;;;16.18;79.36;101618.56;6116449;19;20018;-71
2023/07/17 01:03:58;;;;;;;6.18;2.28;;;;;;;16.21;79.43;101634.31;6113416;19;20015;-71
2023/07/17 01:06:03;;;;;;;6.70;2.33;;;;;;;16.16;79.15;101628.38;6115705;19;20080;-70
2023/07/17 01:08:11;;;;;;;8.55;2.70;;;;;;;16.18;79.28;101637.13;6114444;19;20021;-71
2023/07/17 01:10:16;;;;;;;8.38;2.33;;;;;;;16.16;79.63;101636.31;6116019;19;20014;-73
2023/07/17 01:12:22;;;;;;;8.88;2.72;;;;;;;16.15;79.61;101634.63;6115149;19;20034;-71
2023/07/17 01:14:31;;;;;;;7.72;2.58;;;;;;;16.11;79.73;101635.69;6115294;19;20032;-72
2023/07/17 01:16:41;;;;;;;6.38;2.25;;;;;;;16.14;79.75;101630.28;6114694;19;20022;-72
2023/07/17 01:18:46;;;;;;;6.47;2.50;;;;;;;16.13;79.75;101638.28;6114839;19;20075;-72
2023/07/17 01:20:52;;;;;;;13.00;3.33;;;;;;;16.10;79.79;101634.00;6116097;19;20355;-72
2023/07/17 01:23:03;;;;;;;9.55;2.85;;;;;;;16.10;80.08;101634.00;6114291;19;20029;-72
2023/07/17 01:25:11;;;;;;;6.93;2.47;;;;;;;16.02;80.22;101642.34;6110624;19;20500;-71
2023/07/17 01:27:16;;;;;;;9.20;2.95;;;;;;;15.97;80.20;101640.84;6114639;19;20316;-71
2023/07/17 01:29:21;;;;;;;8.18;2.83;;;;;;;15.95;80.71;101640.91;6113700;19;20081;-71
2023/07/17 01:31:27;;;;;;;8.48;2.63;;;;;;;15.95;80.79;101645.38;6112383;19;20389;-71
2023/07/17 01:33:33;;;;;;;12.07;3.00;;;;;;;15.92;80.41;101651.69;6114261;19;20003;-72
2023/07/17 01:35:38;;;;;;;6.05;2.30;;;;;;;15.86;81.09;101649.34;6113591;19;20153;-70
2023/07/17 01:37:44;;;;;;;6.85;2.60;;;;;;;15.81;81.20;101643.41;6115935;19;20002;-73
2023/07/17 01:39:52;;;;;;;6.78;2.42;;;;;;;15.82;81.23;101645.13;6115299;19;20120;-73
2023/07/17 01:41:59;;;;;;;9.07;2.85;;;;;;;15.83;81.25;101641.56;6113426;19;20026;-73
2023/07/17 01:44:04;;;;;;;8.57;2.78;;;;;;;15.83;81.12;101643.34;6114831;19;20041;-72
2023/07/17 01:46:12;;;;;;;9.68;3.33;;;;;;;15.76;80.89;101640.13;6113786;19;20018;-72
2023/07/17 01:48:17;;;;;;;7.13;2.90;;;;;;;15.77;81.16;101641.84;6114837;19;20078;-72
2023/07/17 01:50:22;;;;;;;8.68;2.58;;;;;;;15.76;81.31;101643.63;6114238;19;20355;-72
2023/07/17 01:52:29;;;;;;;10.75;3.65;;;;;;;15.72;81.38;101650.03;6114628;19;20010;-71
2023/07/17 01:54:34;;;;;;;6.78;2.85;;;;;;;15.68;81.57;101644.94;6114518;19;20014;-72
2023/07/17 01:56:42;;;;;;;7.85;2.70;;;;;;;15.64;82.02;101638.94;6114402;19;20062;-73
2023/07/17 01:58:47;;;;;;;12.30;3.42;;;;;;;15.63;81.82;101637.19;6113691;19;20016;-70
2023/07/17 02:00:56;;;;;;;8.32;3.65;;;;;;;15.61;81.79;101638.19;6113632;19;20121;-72
2023/07/17 02:03:01;;;;;;;13.75;3.10;;;;;;;15.57;81.99;101641.00;6114344;19;20030;-75
2023/07/17 02:05:07;;;;;;;9.02;3.00;;;;;;;15.55;82.15;101639.38;6112275;19;20431;-73
2023/07/17 02:07:12;;;;;;;7.80;2.97;;;;;;;15.56;81.99;101636.66;6116288;19;20105;-71
2023/07/17 02:09:17;;;;;;;8.70;3.47;;;;;;;15.60;81.97;101637.34;6112914;19;20019;-71
2023/07/17 02:11:22;;;;;;;7.07;3.15;;;;;;;15.62;81.87;101640.78;6112961;19;24259;-72
2023/07/17 02:13:28;;;;;;;8.70;3.08;;;;;;;15.56;81.99;101635.78;6111300;19;20455;-70
2023/07/17 02:15:33;;;;;;;9.88;4.47;;;;;;;15.50;82.07;101639.56;6113196;19;20341;-70
2023/07/17 02:17:38;;;;;;;9.77;3.10;;;;;;;15.53;82.40;101638.56;6114908;19;20029;-73
2023/07/17 02:19:44;;;;;;;8.65;3.53;;;;;;;15.49;82.30;101642.31;6112913;19;20058;-73
2023/07/17 02:21:49;;;;;;;11.90;3.53;;;;;;;15.55;82.24;101639.38;6112797;19;20002;-72
2023/07/17 02:23:54;;;;;;;10.52;3.75;;;;;;;15.50;82.44;101642.22;6113931;19;20015;-73
2023/07/17 02:26:03;;;;;;;12.20;4.35;;;;;;;15.49;82.75;101639.66;6112845;19;20015;-74
2023/07/17 02:28:08;;;;;;;9.55;3.72;;;;;;;15.53;82.57;101642.09;6111559;19;20463;-73
2023/07/17 02:30:13;;;;;;;8.75;3.58;;;;;;;15.54;82.72;101645.59;6110411;19;20034;-73
2023/07/17 02:32:19;;;;;;;12.93;3.65;;;;;;;15.60;82.71;101653.25;6114308;19;20054;-74
2023/07/17 02:34:24;;;;;;;11.57;3.80;;;;;;;15.56;82.79;101643.72;6113009;19;20337;-75
2023/07/17 02:36:30;;;;;;;10.23;3.13;;;;;;;15.56;82.85;101644.59;6113188;19;20424;-74
2023/07/17 02:38:38;;;;;;;9.27;4.00;;;;;;;15.56;83.00;101644.59;6112104;19;20017;-72
2023/07/17 02:40:43;;;;;;;12.10;4.05;;;;;;;15.61;82.88;101646.16;6111763;19;20007;-73
2023/07/17 02:42:46;;;;;;;10.35;3.63;;;;;;;15.62;83.15;101648.75;6115146;19;20481;-73
2023/07/17 02:44:52;;;;;;;12.65;4.50;;;;;;;15.63;83.10;101645.16;6112607;19;20022;-74
2023/07/17 02:47:02;;;;;;;10.48;3.47;;;;;;;15.66;83.30;101647.63;6112509;19;20046;-71
2023/07/17 02:49:11;;;;;;;14.13;4.43;;;;;;;15.61;83.37;101654.94;6109960;19;20019;-72
2023/07/17 02:51:16;;;;;;;13.30;3.63;;;;;;;15.60;83.17;101655.91;6111623;19;20007;-72
2023/07/17 02:53:23;;;;;;;11.38;3.90;;;;;;;15.59;82.72;101651.53;6112701;19;20123;-73
2023/07/17 02:55:28;;;;;;;10.32;3.95;;;;;;;15.59;83.20;101654.19;6111602;19;20074;-73
2023/07/17 02:57:37;;;;;;;12.40;4.15;;;;;;;15.56;83.29;101656.97;6111948;19;20466;-73
2023/07/17 02:59:39;;;;;;;11.70;4.00;;;;;;;15.57;83.49;101656.91;6113499;19;20002;-73
2023/07/17 03:01:45;;;;;;;14.68;4.65;;;;;;;15.61;83.49;101656.75;6111993;19;20019;-75
2023/07/17 03:03:53;;;;;;;12.40;5.10;;;;;;;15.64;83.35;101654.81;6113042;19;20007;-73
2023/07/17 03:05:59;;;;;;;11.00;4.60;;;;;;;15.70;83.28;101665.16;6112039;19;20011;-72
2023/07/17 03:08:04;;;;;;;14.82;4.45;;;;;;;15.72;83.55;101655.34;6110176;19;20118;-73
2023/07/17 03:10:10;;;;;;;11.45;3.63;;;;;;;15.76;83.51;101664.84;6109349;19;20349;-73
2023/07/17 03:12:16;;;;;;;12.07;4.13;;;;;;;15.76;83.75;101664.00;6110218;19;20477;-72
2023/07/17 03:14:21;;;;;;;12.55;4.20;;;;;;;15.80;83.90;101671.72;6112230;19;19998;-72
2023/07/17 03:16:26;;;;;;;13.82;4.35;;;;;;;15.85;83.77;101667.97;6110051;19;20014;-72
2023/07/17 03:18:31;;;;;;;16.23;4.53;;;;;;;15.85;83.81;101671.50;6110617;19;20011;-72
2023/07/17 03:20:45;;;;;;;11.60;4.18;;;;;;;15.83;83.48;101669.88;6112296;19;20475;-73
2023/07/17 03:22:50;;;;;;;10.77;4.10;;;;;;;15.84;83.63;101674.22;6113020;19;20485;-72
2023/07/17 03:24:56;;;;;;;13.00;4.47;;;;;;;15.83;83.82;101668.06;6112418;19;20010;-73
2023/07/17 03:27:01;;;;;;;16.05;4.35;;;;;;;15.82;83.70;101670.78;6110424;19;20022;-72
2023/07/17 03:29:06;;;;;;;11.70;3.97;;;;;;;15.84;83.41;101668.91;6108969;19;20208;-72
2023/07/17 03:31:11;;;;;;;14.10;5.00;;;;;;;15.79;83.43;101671.78;6111685;19;20010;-72
2023/07/17 03:33:20;;;;;;;14.52;4.68;;;;;;;15.72;83.74;101667.75;6111828;19;20010;-71
2023/07/17 03:35:23;;;;;;;14.38;4.47;;;;;;;15.73;83.52;101672.94;6112813;19;20059;-72
2023/07/17 03:37:32;;;;;;;18.55;4.60;;;;;;;15.69;83.60;101668.75;6112645;19;20402;-73
2023/07/17 03:39:40;;;;;;;11.70;4.18;;;;;;;15.66;83.49;101670.63;6111176;19;20013;-74
2023/07/17 03:41:45;;;;;;;18.05;4.82;;;;;;;15.63;83.49;101669.00;6110092;19;20011;-73
2023/07/17 03:43:52;;;;;;;16.10;4.85;;;;;;;15.59;83.75;101660.34;6111635;19;20524;-74
2023/07/17 03:45:59;;;;;;;12.88;4.53;;;;;;;15.58;83.85;101666.56;6110856;19;20014;-74
2023/07/17 03:48:04;;;;;;;13.85;5.38;;;;;;;15.56;83.75;101660.50;6111080;19;19999;-74
2023/07/17 03:50:12;;;;;;;18.08;6.25;;;;;;;15.50;84.53;101665.22;6111821;19;20440;-74
2023/07/17 03:52:17;;;;;;;16.50;5.15;;;;;;;15.50;84.72;101662.56;6110734;19;20302;-73
2023/07/17 03:54:25;;;;;;;15.65;5.57;;;;;;;15.47;85.01;101671.53;6109602;19;20467;-72
2023/07/17 03:56:30;;;;;;;14.85;4.82;;;;;;;15.45;84.94;101672.53;6109529;19;20018;-72
2023/07/17 03:58:36;;;;;;;13.02;4.28;;;;;;;15.45;84.64;101669.88;6109239;19;20050;-72
2023/07/17 04:00:41;;;;;;;14.85;5.07;;;;;;;15.43;85.10;101674.38;6111711;19;20038;-72
2023/07/17 04:02:46;;;;;;;15.75;4.88;;;;;;;15.42;84.34;101675.31;6112043;19;20010;-72
2023/07/17 04:04:52;;;;;;;16.55;4.57;;;;;;;15.49;84.37;101677.59;6110445;19;20432;-72
2023/07/17 04:06:58;;;;;;;17.02;5.47;;;;;;;15.48;83.89;101675.03;6112159;19;20015;-73
2023/07/17 04:09:04;;;;;;;17.65;5.38;;;;;;;15.50;83.55;101681.97;6108279;19;20512;-72
2023/07/17 04:11:14;;;;;;;16.52;5.43;;;;;;;15.53;83.23;101678.31;6108753;19;20163;-73
2023/07/17 04:13:17;;;;;;;13.90;5.38;;;;;;;15.60;83.36;101685.03;6108148;19;20015;-73
2023/07/17 04:15:23;;;;;;;19.60;6.30;;;;;;;15.66;83.67;101687.38;6110987;19;20084;-72
2023/07/17 04:17:28;;;;;;;16.25;5.25;;;;;;;15.71;83.95;101689.84;6110723;19;20007;-75
2023/07/17 04:19:33;;;;;;;12.63;4.35;;;;;;;15.75;84.10;101694.94;6112769;19;20018;-73
2023/07/17 04:21:40;;;;;;;17.85;6.00;;;;;;;15.68;86.68;101682.03;6107350;19;20475;-73
2023/07/17 04:23:42;;;;;;;16.25;5.70;;;;;;;15.66;87.47;101687.38;6109313;19;20023;-72
2023/07/17 04:25:47;;;;;;;18.85;5.45;;;;;;;15.64;87.38;101691.03;6109582;19;20019;-72
2023/07/17 04:27:56;;;;;;;21.73;5.68;;;;;;;15.59;88.35;101693.94;6115572;19;20018;-72
2023/07/17 04:30:01;;;;;;;18.58;4.95;;;;;;;15.58;88.88;101685.09;6115525;19;20015;-71
2023/07/17 04:32:10;;;;;;;17.73;6.05;;;;;;;15.56;88.73;101691.41;6115485;19;20021;-71
2023/07/17 04:34:16;;;;;;;19.08;5.40;;;;;;;15.49;88.94;101695.31;6115533;19;20030;-71
2023/07/17 04:36:21;;;;;;;16.58;5.10;;;;;;;15.49;89.05;101696.16;6115729;19;20381;-71
2023/07/17 04:38:26;;;;;;;16.02;5.35;;;;;;;15.51;88.91;101710.19;6115932;19;20066;-71
2023/07/17 04:40:32;;;;;;;15.88;5.28;;;;;;;15.49;88.51;101701.44;6114771;19;20011;-71
2023/07/17 04:42:37;;;;;;;16.17;5.80;;;;;;;15.53;88.64;101708.34;6116546;19;20010;-71
2023/07/17 04:44:46;;;;;;;16.70;6.20;;;;;;;15.54;88.42;101714.50;6115926;19;20082;-74
2023/07/17 04:46:51;;;;;;;18.60;6.47;;;;;;;15.54;88.52;101714.50;6116764;19;20006;-74
2023/07/17 04:48:57;;;;;;;18.50;5.55;;;;;;;15.59;88.92;101713.34;6115392;19;20022;-74
2023/07/17 04:51:03;;;;;;;18.15;5.65;;;;;;;15.62;88.13;101717.63;6114024;19;20013;-71
2023/07/17 04:53:08;;;;;;;23.48;5.88;;;;;;;15.72;88.23;101718.94;6114503;19;20014;-73
2023/07/17 04:55:10;;;;;;;22.75;5.95;;;;;;;15.74;88.44;101718.84;6112888;19;20338;-74
2023/07/17 04:57:15;;;;;;;19.10;5.88;;;;;;;15.80;88.37;101719.44;6113727;19;20006;-73
2023/07/17 04:59:22;;;;;;;22.08;6.97;;;;;;;15.74;88.50;101727.66;6115861;19;20029;-74
2023/07/17 05:01:29;;;;;;;14.10;5.30;;;;;;;15.79;88.53;101723.00;6115869;19;20042;-75
2023/07/17 05:03:36;;;;;;;19.17;5.40;;;;;;;15.86;88.22;101720.91;6116307;19;20013;-75
2023/07/17 05:05:41;;;;;;;21.02;7.50;;;;;;;15.83;88.16;101728.16;6114231;19;20118;-73
2023/07/17 05:07:46;;;;;;;16.38;5.03;;;;;;;15.76;88.36;101727.59;6114504;19;20043;-74
2023/07/17 05:09:51;;;;;;;18.13;5.63;;;;;;;15.87;88.21;101738.53;6114460;19;20345;-71
2023/07/17 05:11:56;;;;;;;17.45;6.50;;;;;;;16.00;87.70;101736.13;6116169;19;20019;-72
2023/07/17 05:14:04;;;;;;;20.20;5.80;;;;;;;16.10;87.03;101731.25;6116124;19;20019;-72
2023/07/17 05:16:09;;;;;;;25.55;5.90;;;;;;;16.49;86.24;101736.34;6114081;19;20010;-74
2023/07/17 05:18:17;;;;;;;19.90;6.00;;;;;;;16.50;86.26;101738.06;6112755;19;20015;-72
2023/07/17 05:20:22;;;;;;;17.55;5.72;;;;;;;16.42;85.73;101750.84;6113498;19;20413;-72
2023/07/17 05:22:33;;;;;;;18.58;5.60;;;;;;;16.23;86.55;101753.56;6089899;19;20058;-71
2023/07/17 05:24:36;;;;;;;19.50;6.22;;;;;;;16.10;87.04;101750.66;6111495;19;20037;-71
2023/07/17 05:26:41;;;;;;;21.65;6.72;;;;;;;16.01;86.81;101753.78;6113025;19;20021;-71
2023/07/17 05:28:46;;;;;;;17.33;6.50;;;;;;;16.00;87.18;101750.25;6115035;19;20034;-69
2023/07/17 05:30:54;;;;;;;18.75;6.47;;;;;;;16.00;87.65;101765.31;6113555;19;20014;-72
2023/07/17 05:32:58;;;;;;;15.02;6.05;;;;;;;16.09;87.43;101759.56;6115734;19;20349;-72
2023/07/17 05:35:07;;;;;;;20.23;6.15;;;;;;;16.30;86.23;101768.25;6111213;19;20024;-71
2023/07/17 05:37:13;;;;;;;18.20;6.50;;;;;;;16.48;85.67;101761.16;6116385;19;20492;-72
2023/07/17 05:39:19;;;;;;;20.85;7.03;;;;;;;16.66;84.48;101769.97;6111453;19;20014;-72
2023/07/17 05:41:24;;;;;;;18.08;6.68;;;;;;;16.82;84.34;101759.47;6112129;19;20030;-71
2023/07/17 05:43:29;;;;;;;18.60;6.10;;;;;;;16.80;83.87;101767.50;6113708;19;20491;-72
2023/07/17 05:45:34;;;;;;;20.17;6.28;;;;;;;17.14;82.82;101773.72;6113298;19;20039;-71
2023/07/17 05:47:39;;;;;;;20.23;6.32;;;;;;;17.44;81.21;101771.19;6114088;19;20070;-71
2023/07/17 05:49:48;;;;;;;18.13;6.05;;;;;;;17.87;80.93;101770.66;6115761;19;20340;-71
2023/07/17 05:51:55;;;;;;;23.35;7.63;;;;;;;17.98;78.88;101774.44;6115463;19;20011;-71
2023/07/17 05:54:03;;;;;;;18.63;6.55;;;;;;;18.42;77.68;101776.31;6114534;19;20028;-72
2023/07/17 05:56:06;;;;;;;16.98;5.95;;;;;;;18.13;77.90;101769.16;6113318;19;20074;-72
2023/07/17 05:58:11;;;;;;;;;;;;;;;18.41;76.74;101782.59;6112195;19;20018;-71
2023/07/17 06:00:17;;;;;;;14.30;4.68;;;;;;;18.43;76.21;101780.69;6112460;19;20328;-71
2023/07/17 06:02:23;;;;;;;17.27;5.00;;;;;;;18.24;75.23;101782.69;6113670;19;20017;-71
2023/07/17 06:04:28;;;;;;;14.57;4.75;;;;;;;17.84;76.85;101786.78;6113810;19;20039;-73
2023/07/17 06:06:33;;;;;;;17.15;5.53;;;;;;;17.87;76.51;101795.44;6112961;19;20383;-73
2023/07/17 06:08:42;;;;;;;15.18;5.63;;;;;;;17.71;77.52;101798.03;6112554;19;20278;-74
2023/07/17 06:10:44;;;;;;;15.40;5.22;;;;;;;17.43;78.43;101793.41;6111065;19;20015;-72
2023/07/17 06:12:52;;;;;;;16.27;5.10;;;;;;;17.45;77.73;101788.84;6114028;19;20002;-73
2023/07/17 06:15:03;;;;;;;13.95;5.35;;;;;;;17.54;76.52;101799.00;6112206;19;20014;-73
2023/07/17 06:17:10;;;;;;;13.95;4.47;;;;;;;17.66;76.93;101799.25;6091868;19;20006;-74
2023/07/17 06:19:15;;;;;;;9.95;3.72;;;;;;;17.68;76.34;101797.38;6113477;19;20015;-74
2023/07/17 06:21:21;;;;;;;13.48;4.43;;;;;;;17.64;75.45;101799.34;6111740;19;20019;-73
2023/07/17 06:23:27;;;;;;;12.70;4.53;;;;;;;17.84;74.60;101805.38;6112301;19;20073;-73
2023/07/17 06:25:35;;;;;;;10.23;3.85;;;;;;;17.77;74.10;101803.06;6112490;19;20372;-74
2023/07/17 06:27:40;;;;;;;11.10;3.90;;;;;;;18.36;72.44;101802.44;6112398;19;20084;-74
2023/07/17 06:29:49;;;;;;;11.13;3.53;;;;;;;18.91;70.49;101799.19;6112945;19;20010;-71
2023/07/17 06:31:54;;;;;;;11.82;3.80;;;;;;;18.47;69.94;101807.97;6112319;19;20014;-71
2023/07/17 06:33:59;;;;;;;7.35;2.67;;;;;;;18.86;67.31;101807.47;6114339;19;20372;-71
2023/07/17 06:36:02;;;;;;;8.88;4.13;;;;;;;18.82;66.17;101803.25;6111863;19;20007;-71
2023/07/17 06:38:07;;;;;;;10.68;3.38;;;;;;;18.86;67.00;101802.13;6112207;19;19999;-72
2023/07/17 06:40:14;;;;;;;9.32;3.55;;;;;;;19.08;67.61;101804.34;6113026;19;20522;-72
2023/07/17 06:42:22;;;;;;;22.08;4.78;;;;;;;19.33;66.06;101807.34;6112197;19;20022;-73
2023/07/17 06:44:28;;;;;;;11.25;3.17;;;;;;;19.46;63.98;101811.81;6111900;19;20027;-73
2023/07/17 06:46:33;;;;;;;10.43;2.80;;;;;;;19.61;63.14;101811.78;6111717;19;20002;-73
2023/07/17 06:48:38;;;;;;;10.98;3.35;;;;;;;19.65;63.66;101811.50;6113099;19;20029;-70
2023/07/17 06:50:43;;;;;;;6.75;3.35;;;;;;;19.18;63.60;101815.31;6109865;19;20015;-71
2023/07/17 06:52:50;;;;;;;13.43;3.40;;;;;;;19.49;63.62;101810.75;6110730;19;20028;-72
2023/07/17 06:54:55;;;;;;;9.20;3.25;;;;;;;19.80;62.50;101806.16;6111028;19;20035;-73
2023/07/17 06:57:09;;;;;;;11.63;3.78;;;;;;;19.18;64.14;101812.66;6101969;19;20039;-72
2023/07/17 06:59:17;;;;;;;7.78;2.80;;;;;;;19.94;61.59;101808.81;6110966;19;20011;-72
2023/07/17 07:01:22;;;;;;;9.38;3.03;;;;;;;20.17;61.22;101810.00;6112689;19;20495;-71
2023/07/17 07:03:29;;;;;;;11.98;3.10;;;;;;;20.39;58.95;101810.28;6111307;19;20025;-72
2023/07/17 07:05:35;;;;;;;7.68;2.88;;;;;;;20.97;58.93;101824.19;6111093;19;20043;-73
2023/07/17 07:07:40;;;;;;;9.77;2.92;;;;;;;20.11;59.01;101821.03;6112128;19;20011;-71
2023/07/17 07:09:44;;;;;;;6.80;2.45;;;;;;;20.47;58.95;101823.09;6110995;19;20022;-72
2023/07/17 07:11:49;;;;;;;9.95;2.90;;;;;;;20.80;57.66;101830.72;6110851;19;20027;-71
2023/07/17 07:13:54;;;;;;;9.07;3.17;;;;;;;20.36;58.71;101831.00;6110466;19;20352;-70
2023/07/17 07:16:02;;;;;;;6.90;2.58;;;;;;;20.08;58.56;101835.44;6111276;19;20095;-71
2023/07/17 07:18:07;;;;;;;6.78;2.60;;;;;;;20.73;57.15;101836.56;6111553;19;20019;-71
2023/07/17 07:20:13;;;;;;;6.53;2.42;;;;;;;20.96;55.30;101838.53;6110370;19;20349;-71
2023/07/17 07:22:20;;;;;;;6.10;2.55;;;;;;;20.54;56.55;101839.63;6109756;19;20298;-71
2023/07/17 07:24:22;;;;;;;7.85;2.90;;;;;;;21.09;54.50;101845.69;6111007;19;20022;-71
2023/07/17 07:26:28;;;;;;;8.95;2.80;;;;;;;21.04;54.51;101838.88;6110115;19;20086;-71
2023/07/17 07:28:33;;;;;;;6.25;2.50;;;;;;;21.36;54.75;101843.78;6111094;19;20097;-71
2023/07/17 07:30:41;;;;;;;8.77;2.80;;;;;;;21.02;54.48;101845.28;6110512;19;20047;-72
2023/07/17 07:32:50;;;;;;;9.82;2.60;;;;;;;21.07;55.12;101851.16;6111683;19;20019;-72
2023/07/17 07:34:55;;;;;;;6.20;2.45;;;;;;;21.17;54.97;101854.91;6111165;19;20118;-72
2023/07/17 07:37:02;;;;;;;8.18;2.97;;;;;;;20.97;54.94;101855.41;6110396;19;20027;-72
2023/07/17 07:39:07;;;;;;;8.32;3.03;;;;;;;21.46;54.99;101849.38;6103798;19;20453;-73
2023/07/17 07:41:10;;;;;;;7.07;2.60;;;;;;;21.41;53.87;101865.75;6111327;19;20038;-72
2023/07/17 07:43:15;;;;;;;9.18;3.78;;;;;;;21.71;53.16;101864.53;6109297;19;20014;-72
2023/07/17 07:45:21;;;;;;;4.35;2.22;;;;;;;21.50;52.81;101866.06;6111186;19;20475;-71
2023/07/17 07:47:26;;;;;;;5.32;2.30;;;;;;;21.35;53.70;101863.44;6110577;19;20546;-70
2023/07/17 07:49:35;;;;;;;8.05;2.22;;;;;;;21.09;55.22;101859.94;6111174;19;20003;-72
2023/07/17 07:51:40;;;;;;;5.40;2.55;;;;;;;21.25;53.26;101867.75;6110709;19;20078;-74
2023/07/17 07:53:45;;;;;;;7.20;2.58;;;;;;;21.65;52.83;101870.34;6110740;19;20321;-72
2023/07/17 07:55:51;;;;;;;6.70;2.50;;;;;;;21.68;52.01;101865.59;6111020;19;20019;-72
2023/07/17 07:57:56;;;;;;;7.07;2.33;;;;;;;21.76;51.81;101864.22;6110070;19;20023;-74
2023/07/17 08:00:02;;;;;;;8.50;2.95;;;;;;;22.01;52.67;101868.63;6111782;19;20094;-73
2023/07/17 08:02:08;;;;;;;6.85;2.83;;;;;;;21.91;51.50;101873.81;6116531;19;20019;-72
2023/07/17 08:04:13;;;;;;;12.55;2.70;;;;;;;21.61;51.54;101879.53;6118916;19;20042;-73
2023/07/17 08:06:22;;;;;;;9.82;2.42;;;;;;;21.64;52.47;101869.47;6119649;19;20014;-73
2023/07/17 08:08:29;;;;;;;7.18;2.40;;;;;;;21.08;53.75;101876.06;6118507;19;20330;-71
2023/07/17 08:10:34;;;;;;;7.88;2.67;;;;;;;21.93;52.44;101874.53;6118865;19;20003;-72
2023/07/17 08:12:39;;;;;;;6.43;2.42;;;;;;;22.12;50.49;101885.66;6117436;19;20017;-72
2023/07/17 08:14:47;;;;;;;7.03;2.20;;;;;;;21.96;52.04;101881.50;6115675;19;20018;-74
2023/07/17 08:16:52;;;;;;;5.30;2.13;;;;;;;21.16;52.98;101889.75;6118940;19;20070;-73
2023/07/17 08:18:59;;;;;;;7.53;2.35;;;;;;;20.90;54.12;101887.03;6117389;19;20006;-73
2023/07/17 08:21:04;;;;;;;10.30;2.33;;;;;;;20.50;54.83;101884.31;6112671;19;20094;-74
2023/07/17 08:23:12;;;;;;;4.75;2.28;;;;;;;20.54;55.13;101885.03;6117983;19;20475;-74
2023/07/17 08:25:17;;;;;;;4.25;2.70;;;;;;;21.38;53.71;101886.47;6117032;19;20014;-74
2023/07/17 08:27:22;;;;;;;7.05;2.10;;;;;;;22.27;51.87;101883.69;6117403;19;20034;-73
2023/07/17 08:29:30;;;;;;;8.27;2.78;;;;;;;21.66;51.87;101893.44;6116269;19;20019;-72
2023/07/17 08:31:35;;;;;;;7.30;2.05;;;;;;;22.25;50.31;101888.31;6116115;19;20043;-72
2023/07/17 08:33:41;;;;;;;5.63;2.25;;;;;;;21.46;52.13;101892.19;6113920;19;20358;-71
2023/07/17 08:35:46;;;;;;;8.05;2.33;;;;;;;21.09;54.32;101902.69;6114068;19;20006;-72
2023/07/17 08:37:51;;;;;;;8.68;2.38;;;;;;;20.81;54.44;101899.19;6115368;19;20015;-73
2023/07/17 08:39:58;;;;;;;10.02;2.97;;;;;;;20.85;55.16;101901.66;6116658;19;20006;-71
2023/07/17 08:42:04;;;;;;;7.40;2.33;;;;;;;20.28;56.52;101902.72;6115162;19;20078;-71
2023/07/17 08:44:10;;;;;;;8.40;2.33;;;;;;;19.79;57.34;101901.31;6117584;19;20030;-72
2023/07/17 08:46:15;;;;;;;6.00;2.10;;;;;;;20.08;58.07;101907.50;6117364;19;20100;-71
2023/07/17 08:48:22;;;;;;;6.30;1.98;;;;;;;20.06;57.98;101904.06;6118025;19;20010;-72
2023/07/17 08:50:28;;;;;;;9.73;2.70;;;;;;;19.91;59.78;101908.56;6117353;19;20026;-72
2023/07/17 08:52:35;;;;;;;8.45;2.45;;;;;;;20.26;59.95;101916.13;6116819;19;20085;-73
2023/07/17 08:54:40;;;;;;;7.43;2.20;;;;;;;20.29;60.98;101917.75;6116044;19;20010;-73
2023/07/17 08:56:51;;;;;;;9.00;2.70;;;;;;;20.21;61.91;101928.06;6114840;19;20014;-73
2023/07/17 08:58:57;;;;;;;7.25;2.83;;;;;;;19.71;62.83;101931.13;6116296;19;20006;-73
2023/07/17 09:01:03;;;;;;;7.55;2.92;;;;;;;19.46;62.79;101913.09;6113784;19;20006;-73
2023/07/17 09:03:10;;;;;;;6.13;2.65;;;;;;;19.53;62.61;101917.09;6092294;19;20051;-72
2023/07/17 09:05:15;;;;;;;8.77;3.25;;;;;;;20.12;61.60;101913.50;6116167;19;20453;-72
2023/07/17 09:07:20;;;;;;;5.80;2.35;;;;;;;21.23;58.50;101915.97;6116683;19;20499;-74
2023/07/17 09:09:25;;;;;;;8.50;2.42;;;;;;;22.13;55.85;101910.59;6111121;19;20032;-71
2023/07/17 09:11:30;;;;;;;9.00;2.83;;;;;;;21.56;56.37;101903.91;6113893;19;20093;-73
2023/07/17 09:13:43;;;;;;;9.38;2.65;;;;;;;22.18;54.80;101905.75;6112994;19;20063;-73
2023/07/17 09:15:48;;;;;;;9.93;3.00;;;;;;;21.46;56.28;101910.91;6114796;19;20018;-71
2023/07/17 09:17:54;;;;;;;7.72;2.80;;;;;;;20.73;58.88;101916.72;6113928;19;20348;-72
2023/07/17 09:20:10;;;;;;;10.27;3.05;;;;;;;20.27;61.22;101917.00;6112774;19;20006;-72
2023/07/17 09:22:17;;;;;;;9.65;3.38;;;;;;;20.04;63.79;101916.66;6115596;19;19998;-72
2023/07/17 09:24:25;;;;;;;10.32;3.00;;;;;;;19.68;63.92;101926.00;6114400;19;20039;-73
2023/07/17 09:26:31;;;;;;;9.48;2.72;;;;;;;20.92;61.75;101917.19;6114096;19;20357;-74
2023/07/17 09:28:47;;;;;;;10.10;3.25;;;;;;;21.20;60.88;101926.03;6114780;19;20060;-72
2023/07/17 09:31:02;;;;;;;7.97;2.67;;;;;;;22.06;58.06;101922.69;6114375;19;20007;-73
2023/07/17 09:33:10;;;;;;;8.43;3.50;;;;;;;21.60;61.04;101924.16;6107718;19;20038;-71
2023/07/17 09:35:19;;;;;;;7.93;3.00;;;;;;;20.65;68.42;101937.72;6114116;19;20041;-73
2023/07/17 09:37:32;;;;;;;6.68;2.50;;;;;;;20.73;65.61;101927.41;6114934;19;20034;-73
2023/07/17 09:39:39;;;;;;;13.73;3.78;;;;;;;19.69;72.33;101942.84;6114649;19;20015;-73
2023/07/17 09:41:44;;;;;;;10.23;3.45;;;;;;;19.17;73.64;101946.84;6113218;19;20412;-70
2023/07/17 09:44:02;;;;;;;9.43;3.72;;;;;;;19.05;74.95;101942.22;6113550;19;20333;-70